createdAt,value
2016-07-26T00:00:04.799Z,99.99
2016-07-26T00:01:04.804Z,99.99
2016-07-26T00:02:04.737Z,99.99
2016-07-26T00:03:04.728Z,99.99
2016-07-26T00:04:04.813Z,99.99
2016-07-26T00:05:04.740Z,99.99
2016-07-26T00:06:04.743Z,99.99
2016-07-26T00:07:04.822Z,99.99
2016-07-26T00:08:04.746Z,99.99
2016-07-26T00:09:04.751Z,99.99
2016-07-26T00:10:04.758Z,99.99
2016-07-26T00:11:04.757Z,99.99
2016-07-26T00:12:05.594Z,99.99
2016-07-26T00:13:04.768Z,99.99
2016-07-26T00:14:04.849Z,99.99
2016-07-26T00:15:04.778Z,99.99
2016-07-26T00:16:04.768Z,99.99
2016-07-26T00:17:04.856Z,99.99
2016-07-26T00:18:04.855Z,99.99
2016-07-26T00:19:04.783Z,99.99
2016-07-26T00:20:04.855Z,99.99
2016-07-26T00:21:04.866Z,99.99
2016-07-26T00:22:04.863Z,99.99
2016-07-26T00:23:04.790Z,99.99
2016-07-26T00:24:04.869Z,99.99
2016-07-26T00:25:04.792Z,99.99
2016-07-26T00:26:04.868Z,99.99
2016-07-26T00:27:04.875Z,99.99
2016-07-26T00:28:04.805Z,99.99
2016-07-26T00:29:04.873Z,99.99
2016-07-26T00:30:04.814Z,99.99
2016-07-26T00:31:04.808Z,99.99
2016-07-26T00:32:04.888Z,99.99
2016-07-26T00:33:04.898Z,99.99
2016-07-26T00:34:04.903Z,99.99
2016-07-26T00:35:04.898Z,99.99
2016-07-26T00:36:04.915Z,99.99
2016-07-26T00:37:04.891Z,99.99
2016-07-26T00:38:04.839Z,99.99
2016-07-26T00:39:14.811Z,99.99
2016-07-26T00:40:04.903Z,99.99
2016-07-26T00:41:04.849Z,99.99
2016-07-26T00:42:04.838Z,99.99
2016-07-26T00:43:04.923Z,99.99
2016-07-26T00:44:04.858Z,99.99
2016-07-26T00:45:04.853Z,99.99
2016-07-26T00:46:04.920Z,99.99
2016-07-26T00:47:04.925Z,99.99
2016-07-26T00:48:04.866Z,99.99
2016-07-26T00:49:04.939Z,99.99
2016-07-26T00:50:04.880Z,99.99
2016-07-26T00:51:04.873Z,99.99
2016-07-26T00:52:04.944Z,99.99
2016-07-26T00:53:04.900Z,99.99
2016-07-26T00:54:04.958Z,99.99
2016-07-26T00:55:04.877Z,99.99
2016-07-26T00:56:04.961Z,99.99
2016-07-26T00:57:04.974Z,99.99
2016-07-26T00:58:04.959Z,99.99
2016-07-26T00:59:04.968Z,99.99
2016-07-26T01:00:04.892Z,99.99
2016-07-26T01:01:04.962Z,99.99
2016-07-26T01:02:04.903Z,99.99
2016-07-26T01:03:04.975Z,99.99
2016-07-26T01:04:04.983Z,99.99
2016-07-26T01:05:04.978Z,99.99
2016-07-26T01:06:04.989Z,99.99
2016-07-26T01:07:04.990Z,99.99
2016-07-26T01:08:04.995Z,99.99
2016-07-26T01:09:04.918Z,99.99
2016-07-26T01:10:05.130Z,99.99
2016-07-26T01:11:04.939Z,99.99
2016-07-26T01:12:04.992Z,99.99
2016-07-26T01:13:04.941Z,99.99
2016-07-26T01:14:04.933Z,99.99
2016-07-26T01:15:05.019Z,99.99
2016-07-26T01:16:04.935Z,99.99
2016-07-26T01:17:05.039Z,99.99
2016-07-26T01:18:04.955Z,99.99
2016-07-26T01:19:04.952Z,99.99
2016-07-26T01:20:05.031Z,99.99
2016-07-26T01:21:05.040Z,99.99
2016-07-26T01:22:05.035Z,99.99
2016-07-26T01:23:05.035Z,99.99
2016-07-26T01:24:05.034Z,99.99
2016-07-26T01:25:04.962Z,99.99
2016-07-26T01:26:05.043Z,99.99
2016-07-26T01:27:05.051Z,99.99
2016-07-26T01:28:05.049Z,99.99
2016-07-26T01:29:04.994Z,99.99
2016-07-26T01:30:05.062Z,99.99
2016-07-26T01:31:05.069Z,99.99
2016-07-26T01:32:05.062Z,99.99
2016-07-26T01:33:05.000Z,99.99
2016-07-26T01:34:05.064Z,99.99
2016-07-26T01:35:05.005Z,99.99
2016-07-26T01:36:05.012Z,99.99
2016-07-26T01:37:05.101Z,99.99
2016-07-26T01:38:05.084Z,99.99
2016-07-26T01:39:05.023Z,99.99
2016-07-26T01:40:05.018Z,99.99
2016-07-26T01:41:05.100Z,99.99
2016-07-26T01:42:05.031Z,99.99
2016-07-26T01:43:05.025Z,99.99
2016-07-26T01:44:05.023Z,99.99
2016-07-26T01:45:05.041Z,99.99
2016-07-26T01:46:05.028Z,99.99
2016-07-26T01:47:05.027Z,99.99
2016-07-26T01:48:05.107Z,99.99
2016-07-26T01:49:05.035Z,99.99
2016-07-26T01:50:05.035Z,99.99
2016-07-26T01:51:05.042Z,99.99
2016-07-26T01:52:05.124Z,99.99
2016-07-26T01:53:05.145Z,99.99
2016-07-26T01:54:05.058Z,99.99
2016-07-26T01:55:05.143Z,99.99
2016-07-26T01:56:05.122Z,99.99
2016-07-26T01:57:05.058Z,99.99
2016-07-26T01:58:05.169Z,99.99
2016-07-26T01:59:05.169Z,99.99
2016-07-26T02:00:05.065Z,99.99
2016-07-26T02:01:05.065Z,99.99
2016-07-26T02:02:05.145Z,99.99
2016-07-26T02:03:05.153Z,99.99
2016-07-26T02:04:05.159Z,99.99
2016-07-26T02:05:05.163Z,99.99
2016-07-26T02:06:05.079Z,99.99
2016-07-26T02:07:05.106Z,99.99
2016-07-26T02:08:05.162Z,99.99
2016-07-26T02:09:05.163Z,99.99
2016-07-26T02:10:05.096Z,99.99
2016-07-26T02:11:05.181Z,99.99
2016-07-26T02:12:05.180Z,99.99
2016-07-26T02:13:05.105Z,99.99
2016-07-26T02:14:05.190Z,99.99
2016-07-26T02:15:05.194Z,99.99
2016-07-26T02:16:05.121Z,99.99
2016-07-26T02:17:05.118Z,99.99
2016-07-26T02:18:05.243Z,99.99
2016-07-26T02:19:05.134Z,99.99
2016-07-26T02:20:05.127Z,99.99
2016-07-26T02:21:05.195Z,99.99
2016-07-26T02:22:05.126Z,99.99
2016-07-26T02:23:05.204Z,99.99
2016-07-26T02:24:05.216Z,99.99
2016-07-26T02:25:05.213Z,99.99
2016-07-26T02:26:05.140Z,99.99
2016-07-26T02:27:05.215Z,99.99
2016-07-26T02:28:05.225Z,99.99
2016-07-26T02:29:05.218Z,99.99
2016-07-26T02:30:05.149Z,99.99
2016-07-26T02:31:05.161Z,99.99
2016-07-26T02:32:05.161Z,99.99
2016-07-26T02:33:05.174Z,99.99
2016-07-26T02:35:05.170Z,99.99
2016-07-26T02:36:05.248Z,99.99
2016-07-26T02:37:05.244Z,99.99
2016-07-26T02:38:05.266Z,99.99
2016-07-26T02:39:05.183Z,99.99
2016-07-26T02:40:05.297Z,99.99
2016-07-26T02:41:05.185Z,99.99
2016-07-26T02:42:05.190Z,99.99
2016-07-26T02:43:05.191Z,99.99
2016-07-26T02:44:05.272Z,99.99
2016-07-26T02:45:05.199Z,99.99
2016-07-26T02:46:05.273Z,99.99
2016-07-26T02:47:05.283Z,99.99
2016-07-26T02:48:05.259Z,99.99
2016-07-26T02:50:05.298Z,99.99
2016-07-26T02:51:05.336Z,99.99
2016-07-26T02:52:05.284Z,99.99
2016-07-26T02:53:05.234Z,99.99
2016-07-26T02:54:05.217Z,99.99
2016-07-26T02:55:05.234Z,99.99
2016-07-26T02:56:05.233Z,99.99
2016-07-26T02:57:05.227Z,99.99
2016-07-26T02:58:05.232Z,99.99
2016-07-26T02:59:05.234Z,99.99
2016-07-26T03:00:05.318Z,99.99
2016-07-26T03:01:05.240Z,99.99
2016-07-26T03:02:05.371Z,99.99
2016-07-26T03:03:05.261Z,99.99
2016-07-26T03:04:05.267Z,99.99
2016-07-26T03:05:05.262Z,99.99
2016-07-26T03:06:05.257Z,99.99
2016-07-26T03:07:05.274Z,99.99
2016-07-26T03:08:05.267Z,99.99
2016-07-26T03:09:05.280Z,99.99
2016-07-26T03:10:05.351Z,99.99
2016-07-26T03:11:05.276Z,99.99
2016-07-26T03:12:05.346Z,99.99
2016-07-26T03:13:05.291Z,99.99
2016-07-26T03:14:05.285Z,99.99
2016-07-26T03:15:05.290Z,99.99
2016-07-26T03:16:05.283Z,99.99
2016-07-26T03:17:05.356Z,99.99
2016-07-26T03:18:05.369Z,99.99
2016-07-26T03:19:05.292Z,99.99
2016-07-26T03:20:05.314Z,99.99
2016-07-26T03:21:05.373Z,99.99
2016-07-26T03:22:05.372Z,99.99
2016-07-26T03:23:05.374Z,99.99
2016-07-26T03:24:05.394Z,99.99
2016-07-26T03:25:05.388Z,99.99
2016-07-26T03:26:05.320Z,99.99
2016-07-26T03:27:05.392Z,99.99
2016-07-26T03:28:05.387Z,99.99
2016-07-26T03:29:05.315Z,99.99
2016-07-26T03:30:05.326Z,99.99
2016-07-26T03:31:05.412Z,99.99
2016-07-26T03:32:05.339Z,99.99
2016-07-26T03:33:05.412Z,99.99
2016-07-26T03:34:05.339Z,99.99
2016-07-26T03:35:05.404Z,99.99
2016-07-26T03:36:05.345Z,99.99
2016-07-26T03:37:05.348Z,99.99
2016-07-26T03:38:05.419Z,99.99
2016-07-26T03:39:05.347Z,99.99
2016-07-26T03:40:05.436Z,99.99
2016-07-26T03:41:05.353Z,99.99
2016-07-26T03:42:05.366Z,99.99
2016-07-26T03:43:05.393Z,99.99
2016-07-26T03:44:05.388Z,99.99
2016-07-26T03:45:05.375Z,99.99
2016-07-26T03:46:05.447Z,99.99
2016-07-26T03:47:05.439Z,99.99
2016-07-26T03:48:05.460Z,99.99
2016-07-26T03:49:05.461Z,99.99
2016-07-26T03:50:05.459Z,99.99
2016-07-26T03:51:05.390Z,99.99
2016-07-26T03:52:05.468Z,99.99
2016-07-26T03:53:05.400Z,99.99
2016-07-26T03:54:05.465Z,99.99
2016-07-26T03:55:05.404Z,99.99
2016-07-26T03:56:05.394Z,99.99
2016-07-26T03:57:05.404Z,99.99
2016-07-26T03:58:05.476Z,99.99
2016-07-26T03:59:05.482Z,99.99
2016-07-26T04:00:05.405Z,99.99
2016-07-26T04:01:05.404Z,99.99
2016-07-26T04:02:05.433Z,99.99
2016-07-26T04:03:05.418Z,99.99
2016-07-26T04:04:05.423Z,99.99
2016-07-26T04:05:05.497Z,99.99
2016-07-26T04:06:05.437Z,99.99
2016-07-26T04:07:05.430Z,99.99
2016-07-26T04:08:05.439Z,99.99
2016-07-26T04:09:05.525Z,99.99
2016-07-26T04:10:05.438Z,99.99
2016-07-26T04:11:05.649Z,99.99
2016-07-26T04:12:05.441Z,99.99
2016-07-26T04:13:05.520Z,99.99
2016-07-26T04:14:05.525Z,99.99
2016-07-26T04:15:05.547Z,99.99
2016-07-26T04:16:05.467Z,99.99
2016-07-26T04:17:05.475Z,99.99
2016-07-26T04:18:05.471Z,99.99
2016-07-26T04:19:05.544Z,99.99
2016-07-26T04:20:05.464Z,99.99
2016-07-26T04:21:05.541Z,99.99
2016-07-26T04:22:05.489Z,99.99
2016-07-26T04:23:05.542Z,99.99
2016-07-26T04:24:05.481Z,99.99
2016-07-26T04:25:05.487Z,99.99
2016-07-26T04:26:05.562Z,99.99
2016-07-26T04:27:05.583Z,99.99
2016-07-26T04:28:05.492Z,99.99
2016-07-26T04:29:05.554Z,99.99
2016-07-26T04:30:05.565Z,99.99
2016-07-26T04:31:05.492Z,99.99
2016-07-26T04:32:05.514Z,99.99
2016-07-26T04:33:05.599Z,99.99
2016-07-26T04:34:05.597Z,99.99
2016-07-26T04:35:05.507Z,99.99
2016-07-26T04:36:05.577Z,99.99
2016-07-26T04:37:05.512Z,99.99
2016-07-26T04:38:05.636Z,99.99
2016-07-26T04:39:05.586Z,99.99
2016-07-26T04:40:05.592Z,99.99
2016-07-26T04:41:05.524Z,99.99
2016-07-26T04:42:05.605Z,99.99
2016-07-26T04:43:05.610Z,99.99
2016-07-26T04:44:05.610Z,99.99
2016-07-26T04:45:05.599Z,99.99
2016-07-26T04:46:05.561Z,99.99
2016-07-26T04:47:05.555Z,99.99
2016-07-26T04:48:05.639Z,99.99
2016-07-26T04:49:05.548Z,99.99
2016-07-26T04:50:05.563Z,99.99
2016-07-26T04:51:05.558Z,99.99
2016-07-26T04:52:05.643Z,99.99
2016-07-26T04:53:05.570Z,99.99
2016-07-26T04:54:05.569Z,99.99
2016-07-26T04:55:05.568Z,99.99
2016-07-26T04:56:05.572Z,99.99
2016-07-26T04:57:06.322Z,99.99
2016-07-26T04:58:05.642Z,99.99
2016-07-26T04:59:05.582Z,99.99
2016-07-26T05:00:05.654Z,99.99
2016-07-26T05:01:05.584Z,99.99
2016-07-26T05:02:05.589Z,99.99
2016-07-26T05:03:05.588Z,99.99
2016-07-26T05:04:05.593Z,99.99
2016-07-26T05:05:05.603Z,99.99
2016-07-26T05:06:05.672Z,99.99
2016-07-26T05:07:05.602Z,99.99
2016-07-26T05:08:05.593Z,99.99
2016-07-26T05:09:05.696Z,99.99
2016-07-26T05:10:05.689Z,99.99
2016-07-26T05:11:05.608Z,99.99
2016-07-26T05:12:05.684Z,99.99
2016-07-26T05:13:05.621Z,99.99
2016-07-26T05:14:05.698Z,99.99
2016-07-26T05:15:05.695Z,99.99
2016-07-26T05:16:05.621Z,99.99
2016-07-26T05:17:05.704Z,99.99
2016-07-26T05:18:05.693Z,99.99
2016-07-26T05:19:05.701Z,99.99
2016-07-26T05:20:05.717Z,99.99
2016-07-26T05:21:05.644Z,99.99
2016-07-26T05:22:05.717Z,99.99
2016-07-26T05:23:05.717Z,99.99
2016-07-26T05:24:05.719Z,99.99
2016-07-26T05:25:05.648Z,99.99
2016-07-26T05:26:05.658Z,99.99
2016-07-26T05:27:05.666Z,99.99
2016-07-26T05:28:05.740Z,99.99
2016-07-26T05:29:05.656Z,99.99
2016-07-26T05:30:05.657Z,99.99
2016-07-26T05:31:05.741Z,99.99
2016-07-26T05:32:05.670Z,99.99
2016-07-26T05:33:05.676Z,99.99
2016-07-26T05:34:05.673Z,99.99
2016-07-26T05:35:05.684Z,99.99
2016-07-26T05:36:05.676Z,99.99
2016-07-26T05:37:05.683Z,99.99
2016-07-26T05:38:05.770Z,99.99
2016-07-26T05:39:05.766Z,99.99
2016-07-26T05:40:05.690Z,99.99
2016-07-26T05:41:05.697Z,99.99
2016-07-26T05:42:05.696Z,99.99
2016-07-26T05:43:05.769Z,99.99
2016-07-26T05:44:05.711Z,99.99
2016-07-26T05:45:05.714Z,99.99
2016-07-26T05:46:05.773Z,99.99
2016-07-26T05:47:05.715Z,99.99
2016-07-26T05:48:05.719Z,99.99
2016-07-26T05:49:05.722Z,99.99
2016-07-26T05:50:05.796Z,99.99
2016-07-26T05:51:05.822Z,99.99
2016-07-26T05:52:05.729Z,99.99
2016-07-26T05:53:05.729Z,99.99
2016-07-26T05:54:05.825Z,99.99
2016-07-26T05:55:05.735Z,99.99
2016-07-26T05:56:05.819Z,99.99
2016-07-26T05:57:05.745Z,99.99
2016-07-26T05:58:05.740Z,99.99
2016-07-26T05:59:05.822Z,99.99
2016-07-26T06:00:05.823Z,99.99
2016-07-26T06:01:05.828Z,99.99
2016-07-26T06:02:05.756Z,99.99
2016-07-26T06:03:05.763Z,99.99
2016-07-26T06:04:05.765Z,99.99
2016-07-26T06:05:05.758Z,99.99
2016-07-26T06:06:05.770Z,99.99
2016-07-26T06:07:05.791Z,99.99
2016-07-26T06:08:05.773Z,99.99
2016-07-26T06:09:05.780Z,99.99
2016-07-26T06:10:05.775Z,99.99
2016-07-26T06:11:05.787Z,99.99
2016-07-26T06:12:05.788Z,99.99
2016-07-26T06:13:05.925Z,99.99
2016-07-26T06:14:05.924Z,99.99
2016-07-26T06:15:05.785Z,99.99
2016-07-26T06:16:05.942Z,99.99
2016-07-26T06:17:05.935Z,99.99
2016-07-26T06:18:05.941Z,99.99
2016-07-26T06:19:05.944Z,99.99
2016-07-26T06:20:05.951Z,99.99
2016-07-26T06:21:05.819Z,99.99
2016-07-26T06:22:05.833Z,99.99
2016-07-26T06:23:05.946Z,99.99
2016-07-26T06:24:05.833Z,99.99
2016-07-26T06:25:05.816Z,99.99
2016-07-26T06:26:05.830Z,99.99
2016-07-26T06:27:05.831Z,99.99
2016-07-26T06:28:05.964Z,99.83
2016-07-26T06:29:05.999Z,99.99
2016-07-26T06:30:05.837Z,99.21
2016-07-26T06:31:05.839Z,98.54
2016-07-26T06:32:05.867Z,98.05
2016-07-26T06:33:05.979Z,99.11
2016-07-26T06:34:05.869Z,99.44
2016-07-26T06:35:05.878Z,99.83
2016-07-26T06:36:05.990Z,98.87
2016-07-26T06:37:05.855Z,98.58
2016-07-26T06:38:06.035Z,98.44
2016-07-26T06:39:05.998Z,97.57
2016-07-26T06:40:06.004Z,97.47
2016-07-26T06:41:06.012Z,98.82
2016-07-26T06:42:06.017Z,98.96
2016-07-26T06:43:05.874Z,98.19
2016-07-26T06:44:06.010Z,97.57
2016-07-26T06:45:06.026Z,96.27
2016-07-26T06:46:05.886Z,95.5
2016-07-26T06:47:06.020Z,94.97
2016-07-26T06:48:06.057Z,96.27
2016-07-26T06:49:06.028Z,95.98
2016-07-26T06:50:05.891Z,97.09
2016-07-26T06:51:06.033Z,97.57
2016-07-26T06:52:05.901Z,97.47
2016-07-26T06:53:05.907Z,96.99
2016-07-26T06:54:05.904Z,96.22
2016-07-26T06:55:06.045Z,96.61
2016-07-26T06:56:05.909Z,96.61
2016-07-26T06:57:05.920Z,96.08
2016-07-26T06:58:06.081Z,96.08
2016-07-26T06:59:05.923Z,96.03
2016-07-26T07:00:05.947Z,95.98
2016-07-26T07:01:05.930Z,96.03
2016-07-26T07:02:05.936Z,96.8
2016-07-26T07:03:05.952Z,96.8
2016-07-26T07:04:05.938Z,96.12
2016-07-26T07:05:05.943Z,95.45
2016-07-26T07:06:06.093Z,95.65
2016-07-26T07:07:05.944Z,94.78
2016-07-26T07:08:05.945Z,94.44
2016-07-26T07:09:05.944Z,93.96
2016-07-26T07:10:06.093Z,94.25
2016-07-26T07:11:06.108Z,93.29
2016-07-26T07:12:06.222Z,91.84
2016-07-26T07:13:06.502Z,90.2
2016-07-26T07:14:06.110Z,89.47
2016-07-26T07:15:06.097Z,89.47
2016-07-26T07:16:06.120Z,87.74
2016-07-26T07:17:06.109Z,87.01
2016-07-26T07:18:06.012Z,86.96
2016-07-26T07:19:05.980Z,86.52
2016-07-26T07:20:06.252Z,87.2
2016-07-26T07:21:06.134Z,89.23
2016-07-26T07:22:05.993Z,90.06
2016-07-26T07:23:06.592Z,89.58
2016-07-26T07:24:05.992Z,89.48
2016-07-26T07:25:06.013Z,89.53
2016-07-26T07:26:05.992Z,89.43
2016-07-26T07:27:06.035Z,87.16
2016-07-26T07:28:06.169Z,86.62
2016-07-26T07:29:06.167Z,85.94
2016-07-26T07:30:06.183Z,85.41
2016-07-26T07:31:06.075Z,86.28
2016-07-26T07:32:06.193Z,86.82
2016-07-26T07:33:06.262Z,85.91
2016-07-26T07:34:06.233Z,85.75
2016-07-26T07:35:06.070Z,85.66
2016-07-26T07:36:06.246Z,84.59
2016-07-26T07:37:06.176Z,85.6
2016-07-26T07:38:06.264Z,85.08
2016-07-26T07:39:06.043Z,86.14
2016-07-26T07:40:06.243Z,85.27
2016-07-26T07:41:06.219Z,83.29
2016-07-26T07:42:06.184Z,81.78
2016-07-26T07:43:06.103Z,82.84
2016-07-26T07:44:06.219Z,83.39
2016-07-26T07:45:06.215Z,83.29
2016-07-26T07:46:06.056Z,82.94
2016-07-26T07:47:06.114Z,82.36
2016-07-26T07:48:06.212Z,81.65
2016-07-26T07:49:06.089Z,82.13
2016-07-26T07:50:06.199Z,82.46
2016-07-26T07:51:06.222Z,82.81
2016-07-26T07:52:06.217Z,83.09
2016-07-26T07:53:06.072Z,85.66
2016-07-26T07:54:06.323Z,85.13
2016-07-26T07:55:06.088Z,85.71
2016-07-26T07:56:06.228Z,84.84
2016-07-26T07:57:06.295Z,84.41
2016-07-26T07:58:06.090Z,83.58
2016-07-26T07:59:06.234Z,82.03
2016-07-26T08:00:06.105Z,82.17
2016-07-26T08:01:08.174Z,82.61
2016-07-26T08:02:06.281Z,84.21
2016-07-26T08:03:06.104Z,84.55
2016-07-26T08:04:06.297Z,84.75
2016-07-26T08:05:06.304Z,85.23
2016-07-26T08:06:06.157Z,84.84
2016-07-26T08:07:06.297Z,83.92
2016-07-26T08:08:06.121Z,82.96
2016-07-26T08:09:06.135Z,83.19
2016-07-26T08:10:06.124Z,82.23
2016-07-26T08:11:06.269Z,83.34
2016-07-26T08:12:06.255Z,82.28
2016-07-26T08:13:06.140Z,81.74
2016-07-26T08:14:06.953Z,81.2
2016-07-26T08:15:06.384Z,80.95
2016-07-26T08:16:06.278Z,78.96
2016-07-26T08:17:06.291Z,75.95
2016-07-26T08:18:06.721Z,72.73
2016-07-26T08:19:06.170Z,72.31
2016-07-26T08:20:06.234Z,71.54
2016-07-26T08:21:06.336Z,72.51
2016-07-26T08:22:06.179Z,74.76
2016-07-26T08:23:06.339Z,75.21
2016-07-26T08:24:06.371Z,75.4
2016-07-26T08:25:06.188Z,75.6
2016-07-26T08:26:07.037Z,75.37
2016-07-26T08:27:06.177Z,75.5
2016-07-26T08:28:06.305Z,75.7
2016-07-26T08:29:06.234Z,76.84
2016-07-26T08:30:06.403Z,77.32
2016-07-26T08:31:06.326Z,79.27
2016-07-26T08:32:06.329Z,80.97
2016-07-26T08:33:06.193Z,80.58
2016-07-26T08:34:06.212Z,80.3
2016-07-26T08:35:06.187Z,79.47
2016-07-26T08:36:06.341Z,78.44
2016-07-26T08:37:06.210Z,77.09
2016-07-26T08:38:06.258Z,78.34
2016-07-26T08:39:06.344Z,77.76
2016-07-26T08:40:06.296Z,77.67
2016-07-26T08:41:06.222Z,77.13
2016-07-26T08:42:06.350Z,76.26
2016-07-26T08:43:06.397Z,76.59
2016-07-26T08:44:06.353Z,76.16
2016-07-26T08:45:06.229Z,76.16
2016-07-26T08:46:06.363Z,75.39
2016-07-26T08:47:06.302Z,75.04
2016-07-26T08:48:06.237Z,74.01
2016-07-26T08:49:06.371Z,72.4
2016-07-26T08:50:06.340Z,71.99
2016-07-26T08:51:06.246Z,71.99
2016-07-26T08:52:06.251Z,72.18
2016-07-26T08:53:06.257Z,72.92
2016-07-26T08:54:06.264Z,73.02
2016-07-26T08:55:06.394Z,73.02
2016-07-26T08:56:06.403Z,71.76
2016-07-26T08:57:06.261Z,71.6
2016-07-26T08:58:06.417Z,72.63
2016-07-26T08:59:06.265Z,72.92
2016-07-26T09:00:06.410Z,73.11
2016-07-26T09:01:06.275Z,72.98
2016-07-26T09:02:07.007Z,73.95
2016-07-26T09:03:06.428Z,74.15
2016-07-26T09:04:06.435Z,72.4
2016-07-26T09:05:06.283Z,71.37
2016-07-26T09:06:06.450Z,70.37
2016-07-26T09:07:06.462Z,71.06
2016-07-26T09:08:06.443Z,71.15
2016-07-26T09:09:06.791Z,70.54
2016-07-26T09:10:07.564Z,70.18
2016-07-26T09:11:06.498Z,69.73
2016-07-26T09:12:06.446Z,69.09
2016-07-26T09:13:06.471Z,69.93
2016-07-26T09:14:06.588Z,69.6
2016-07-26T09:15:06.313Z,69.02
2016-07-26T09:16:06.535Z,68.73
2016-07-26T09:17:06.501Z,68.79
2016-07-26T09:18:06.465Z,70.05
2016-07-26T09:19:06.327Z,70.01
2016-07-26T09:20:08.152Z,71.04
2016-07-26T09:21:07.518Z,72.58
2016-07-26T09:22:08.707Z,72.81
2016-07-26T09:23:06.454Z,73.16
2016-07-26T09:24:06.581Z,74.07
2016-07-26T09:25:06.632Z,73.97
2016-07-26T09:26:06.801Z,73.3
2016-07-26T09:27:07.210Z,73.49
2016-07-26T09:28:06.433Z,72.52
2016-07-26T09:29:06.357Z,72.3
2016-07-26T09:30:06.542Z,71.78
2016-07-26T09:31:06.528Z,70.24
2016-07-26T09:32:06.373Z,69.95
2016-07-26T09:33:06.540Z,70.24
2016-07-26T09:34:06.371Z,70.37
2016-07-26T09:35:06.536Z,69.43
2016-07-26T09:36:06.382Z,68.27
2016-07-26T09:37:07.310Z,66.17
2016-07-26T09:38:06.390Z,65.3
2016-07-26T09:39:06.381Z,65.5
2016-07-26T09:40:06.530Z,66.69
2016-07-26T09:41:06.557Z,66.6
2016-07-26T09:42:06.388Z,66.56
2016-07-26T09:43:06.530Z,65.62
2016-07-26T09:44:06.541Z,64.53
2016-07-26T09:45:06.410Z,65.59
2016-07-26T09:46:06.583Z,66.78
2016-07-26T09:47:06.547Z,66.98
2016-07-26T09:48:06.478Z,65.37
2016-07-26T09:49:06.414Z,62.46
2016-07-26T09:50:06.425Z,62.13
2016-07-26T09:51:06.433Z,61
2016-07-26T09:52:06.579Z,60.35
2016-07-26T09:53:06.424Z,59.95
2016-07-26T09:54:06.605Z,59.67
2016-07-26T09:55:06.443Z,59.28
2016-07-26T09:56:06.573Z,59.01
2016-07-26T09:57:06.456Z,58.75
2016-07-26T09:58:06.655Z,58.46
2016-07-26T09:59:06.636Z,58.65
2016-07-26T10:00:06.619Z,61.29
2016-07-26T10:01:06.590Z,61.35
2016-07-26T10:02:06.471Z,62.78
2016-07-26T10:03:06.464Z,60.94
2016-07-26T10:04:06.599Z,59.9
2016-07-26T10:05:06.608Z,58.98
2016-07-26T10:06:06.615Z,59.54
2016-07-26T10:07:06.481Z,59.31
2016-07-26T10:08:06.491Z,59.12
2016-07-26T10:09:06.643Z,59.09
2016-07-26T10:10:06.623Z,58.58
2016-07-26T10:11:06.624Z,59.45
2016-07-26T10:12:06.512Z,59.23
2016-07-26T10:13:06.692Z,59.33
2016-07-26T10:14:06.510Z,59.36
2016-07-26T10:15:06.634Z,57.5
2016-07-26T10:16:06.491Z,56.36
2016-07-26T10:17:06.688Z,57.01
2016-07-26T10:18:06.639Z,56.24
2016-07-26T10:19:06.642Z,55.94
2016-07-26T10:20:06.705Z,55.39
2016-07-26T10:21:06.529Z,55.13
2016-07-26T10:22:06.510Z,52.36
2016-07-26T10:23:06.663Z,49.99
2016-07-26T10:24:06.706Z,48.34
2016-07-26T10:25:06.545Z,47.87
2016-07-26T10:26:06.686Z,47.09
2016-07-26T10:27:06.661Z,47.95
2016-07-26T10:28:06.533Z,49.07
2016-07-26T10:29:06.749Z,50.97
2016-07-26T10:30:06.692Z,53.14
2016-07-26T10:31:06.680Z,54.93
2016-07-26T10:32:06.541Z,54.83
2016-07-26T10:33:06.710Z,55.51
2016-07-26T10:34:06.647Z,56.04
2016-07-26T10:35:06.711Z,56.24
2016-07-26T10:36:06.706Z,54.68
2016-07-26T10:37:06.583Z,53.25
2016-07-26T10:38:06.701Z,53.52
2016-07-26T10:39:06.593Z,54.13
2016-07-26T10:40:06.583Z,54.13
2016-07-26T10:41:06.740Z,54.44
2016-07-26T10:42:06.728Z,55.1
2016-07-26T10:43:06.628Z,56.43
2016-07-26T10:44:06.723Z,55.92
2016-07-26T10:45:06.747Z,55.19
2016-07-26T10:46:06.603Z,56.36
2016-07-26T10:47:06.732Z,56.11
2016-07-26T10:48:06.627Z,56.62
2016-07-26T10:49:06.746Z,55.46
2016-07-26T10:50:06.616Z,55.03
2016-07-26T10:51:06.625Z,54.76
2016-07-26T10:52:06.878Z,54.03
2016-07-26T10:53:06.646Z,54.13
2016-07-26T10:54:06.617Z,54.99
2016-07-26T10:55:06.614Z,54.11
2016-07-26T10:56:06.619Z,53.85
2016-07-26T10:57:06.779Z,54.33
2016-07-26T10:58:06.624Z,53.55
2016-07-26T10:59:06.639Z,53.85
2016-07-26T11:00:06.822Z,53.36
2016-07-26T11:01:06.628Z,52.5
2016-07-26T11:02:06.640Z,51.75
2016-07-26T11:03:06.636Z,50.82
2016-07-26T11:04:06.821Z,48.63
2016-07-26T11:05:06.785Z,48.87
2016-07-26T11:06:06.651Z,49.41
2016-07-26T11:07:06.894Z,49.32
2016-07-26T11:08:06.656Z,48.97
2016-07-26T11:09:06.844Z,48.38
2016-07-26T11:10:06.807Z,49.14
2016-07-26T11:11:06.921Z,49.58
2016-07-26T11:12:06.691Z,49.8
2016-07-26T11:13:06.675Z,50.26
2016-07-26T11:14:06.851Z,50.87
2016-07-26T11:15:06.819Z,51.07
2016-07-26T11:16:06.670Z,51.26
2016-07-26T11:17:06.830Z,50.8
2016-07-26T11:18:06.903Z,50.87
2016-07-26T11:19:06.695Z,50.29
2016-07-26T11:21:06.702Z,49.46
2016-07-26T11:22:06.831Z,49.22
2016-07-26T11:23:06.764Z,49.29
2016-07-26T11:24:06.877Z,49.56
2016-07-26T11:25:06.854Z,49.61
2016-07-26T11:26:06.863Z,49.17
2016-07-26T11:27:06.838Z,48.68
2016-07-26T11:28:06.855Z,48.73
2016-07-26T11:29:06.712Z,48.05
2016-07-26T11:30:06.861Z,47.19
2016-07-26T11:31:06.865Z,46.65
2016-07-26T11:32:06.727Z,46.57
2016-07-26T11:33:06.863Z,46.47
2016-07-26T11:34:06.893Z,46.65
2016-07-26T11:35:06.737Z,46.75
2016-07-26T11:36:06.998Z,46.75
2016-07-26T11:37:06.880Z,47.67
2016-07-26T11:38:06.739Z,50.43
2016-07-26T11:39:06.887Z,51.24
2016-07-26T11:40:06.786Z,51.73
2016-07-26T11:41:06.857Z,51.82
2016-07-26T11:42:07.748Z,51.34
2016-07-26T11:43:06.834Z,51.7
2016-07-26T11:44:06.907Z,52.33
2016-07-26T11:45:06.931Z,52.82
2016-07-26T11:46:06.788Z,52.26
2016-07-26T11:47:06.769Z,51.87
2016-07-26T11:48:06.944Z,51.67
2016-07-26T11:49:06.791Z,52.26
2016-07-26T11:50:06.927Z,51.21
2016-07-26T11:51:06.927Z,51.31
2016-07-26T11:52:06.946Z,50.75
2016-07-26T11:53:06.800Z,50.48
2016-07-26T11:54:06.923Z,49.66
2016-07-26T11:55:06.931Z,48.34
2016-07-26T11:56:06.952Z,47.19
2016-07-26T11:57:06.951Z,46.92
2016-07-26T11:58:06.809Z,47.31
2016-07-26T11:59:06.851Z,48.54
2016-07-26T12:00:06.946Z,48.9
2016-07-26T12:01:06.879Z,49.8
2016-07-26T12:02:06.964Z,49.9
2016-07-26T12:03:06.833Z,48.85
2016-07-26T12:04:07.020Z,48.68
2016-07-26T12:05:06.958Z,48.97
2016-07-26T12:06:06.961Z,47.73
2016-07-26T12:07:06.964Z,47.46
2016-07-26T12:08:07.640Z,47.14
2016-07-26T12:09:07.020Z,47.24
2016-07-26T12:10:06.847Z,47.9
2016-07-26T12:11:07.000Z,48.54
2016-07-26T12:12:06.985Z,48.73
2016-07-26T12:13:07.003Z,49.32
2016-07-26T12:14:06.863Z,51.26
2016-07-26T12:15:06.854Z,52.26
2016-07-26T12:16:06.863Z,52.55
2016-07-26T12:17:07.664Z,50.92
2016-07-26T12:18:07.068Z,49.85
2016-07-26T12:19:06.871Z,49.95
2016-07-26T12:20:06.878Z,49.97
2016-07-26T12:21:07.892Z,50.92
2016-07-26T12:22:07.042Z,52.23
2016-07-26T12:23:06.879Z,52.23
2016-07-26T12:24:06.887Z,52.09
2016-07-26T12:25:06.942Z,51.51
2016-07-26T12:26:07.024Z,51.82
2016-07-26T12:27:06.967Z,51.21
2016-07-26T12:28:06.927Z,51.07
2016-07-26T12:29:07.046Z,50.36
2016-07-26T12:30:07.047Z,49.63
2016-07-26T12:31:07.065Z,49.34
2016-07-26T12:32:06.921Z,49.27
2016-07-26T12:33:07.084Z,48.9
2016-07-26T12:34:06.916Z,48.22
2016-07-26T12:35:07.054Z,46.89
2016-07-26T12:36:06.922Z,45.28
2016-07-26T12:37:06.928Z,44.34
2016-07-26T12:38:07.072Z,44.56
2016-07-26T12:39:06.942Z,44.54
2016-07-26T12:40:07.071Z,45.67
2016-07-26T12:41:07.166Z,45.67
2016-07-26T12:42:06.990Z,47.46
2016-07-26T12:43:07.096Z,47.07
2016-07-26T12:44:06.962Z,48.12
2016-07-26T12:45:07.082Z,48.75
2016-07-26T12:46:06.945Z,49.24
2016-07-26T12:47:07.112Z,49.07
2016-07-26T12:48:06.966Z,49.34
2016-07-26T12:49:06.960Z,49.56
2016-07-26T12:50:07.117Z,49.85
2016-07-26T12:51:07.099Z,50.04
2016-07-26T12:52:06.975Z,49.97
2016-07-26T12:53:07.111Z,49.1
2016-07-26T12:54:06.984Z,49.51
2016-07-26T12:55:06.978Z,49.66
2016-07-26T12:56:07.120Z,50.07